createdAt,value
2023-04-06T00:02:25.929Z,101085.09
2023-04-06T00:06:27.932Z,101084.56
2023-04-06T00:10:29.418Z,101074.94
2023-04-06T00:14:31.140Z,101085.25
2023-04-06T00:18:32.780Z,101083.06
2023-04-06T00:22:34.632Z,101082.53
2023-04-06T00:26:36.153Z,101079.41
2023-04-06T00:30:37.605Z,101073.72
2023-04-06T00:34:39.161Z,101072.56
2023-04-06T00:38:40.592Z,101067.41
2023-04-06T00:42:42.570Z,101061.53
2023-04-06T00:46:44.006Z,101070.75
2023-04-06T00:50:45.391Z,101063.19
2023-04-06T00:54:46.856Z,101055.88
2023-04-06T00:58:48.256Z,101050.38
2023-04-06T01:02:50.110Z,101045.44
2023-04-06T01:06:51.911Z,101041.97
2023-04-06T01:10:53.315Z,101025.13
2023-04-06T01:14:54.792Z,101027.00
2023-04-06T01:18:56.492Z,101020.72
2023-04-06T01:22:57.846Z,101011.66
2023-04-06T01:26:59.195Z,101013.38
2023-04-06T01:31:01.007Z,101009.56
2023-04-06T01:35:02.377Z,101007.47
2023-04-06T01:39:04.081Z,101002.03
2023-04-06T01:43:05.462Z,101000.75
2023-04-06T01:47:06.816Z,100998.13
2023-04-06T01:51:08.288Z,100995.31
2023-04-06T01:55:09.654Z,101002.34
2023-04-06T01:59:11.215Z,101000.88
2023-04-06T02:03:12.943Z,100992.47
2023-04-06T02:07:14.499Z,100998.25
2023-04-06T02:11:15.940Z,100990.69
2023-04-06T02:15:17.322Z,100994.03
2023-04-06T02:19:18.692Z,100991.72
2023-04-06T02:23:20.379Z,100988.59
2023-04-06T02:27:21.775Z,100986.16
2023-04-06T02:31:23.263Z,100981.88
2023-04-06T02:35:26.563Z,100983.09
2023-04-06T02:39:27.976Z,100979.56
2023-04-06T02:43:29.336Z,100975.09
2023-04-06T02:47:30.923Z,100984.69
2023-04-06T02:51:32.470Z,100982.63
2023-04-06T02:55:33.884Z,100974.25
2023-04-06T02:59:35.449Z,100982.38
2023-04-06T03:03:37.010Z,100974.13
2023-04-06T03:07:38.541Z,100978.09
2023-04-06T03:11:39.897Z,100979.88
2023-04-06T03:15:41.531Z,100970.03
2023-04-06T03:19:43.351Z,100964.53
2023-04-06T03:23:44.773Z,100967.06
2023-04-06T03:27:46.208Z,100962.63
2023-04-06T03:31:47.665Z,100957.97
2023-04-06T03:35:49.091Z,100972.25
2023-04-06T03:39:50.416Z,100962.34
2023-04-06T03:43:52.015Z,100965.25
2023-04-06T03:47:53.378Z,100964.50
2023-04-06T03:51:55.230Z,100960.50
2023-04-06T03:55:56.694Z,100968.88
2023-04-06T03:59:58.163Z,100960.56
2023-04-06T04:03:59.645Z,100960.13
2023-04-06T04:08:01.227Z,100964.94
2023-04-06T04:12:02.852Z,100965.25
2023-04-06T04:16:04.472Z,100972.75
2023-04-06T04:20:06.785Z,100965.25
2023-04-06T04:24:08.192Z,100972.28
2023-04-06T04:28:09.567Z,100971.56
2023-04-06T04:32:11.237Z,100967.31
2023-04-06T04:36:13.102Z,100966.72
2023-04-06T04:40:14.623Z,100968.69
2023-04-06T04:44:18.966Z,100978.19
2023-04-06T04:48:20.536Z,100976.72
2023-04-06T04:52:21.998Z,100969.84
2023-04-06T04:56:23.518Z,100973.59
2023-04-06T05:00:25.098Z,100972.47
2023-04-06T05:04:27.135Z,100981.47
2023-04-06T05:08:28.586Z,100980.56
2023-04-06T05:12:30.241Z,100976.56
2023-04-06T05:16:31.622Z,100982.94
2023-04-06T05:20:33.170Z,100978.66
2023-04-06T05:24:36.062Z,100986.78
2023-04-06T05:28:37.489Z,100979.91
2023-04-06T05:32:38.966Z,100984.88
2023-04-06T05:36:41.592Z,100972.34
2023-04-06T05:40:43.616Z,100985.06
2023-04-06T05:44:44.980Z,100982.38
2023-04-06T05:48:46.640Z,100987.91
2023-04-06T05:52:48.059Z,100982.97
2023-04-06T05:56:49.404Z,100987.56
2023-04-06T06:00:50.775Z,100989.03
2023-04-06T06:04:52.299Z,100984.00
2023-04-06T06:08:53.715Z,100979.22
2023-04-06T06:12:56.315Z,100974.13
2023-04-06T06:16:57.749Z,100974.50
2023-04-06T06:20:59.296Z,100968.44
2023-04-06T06:25:00.969Z,100972.09
2023-04-06T06:29:02.385Z,100963.97
2023-04-06T06:33:04.299Z,100976.06
2023-04-06T06:37:06.958Z,100972.91
2023-04-06T06:41:08.308Z,100970.78
2023-04-06T06:45:10.339Z,100973.59
2023-04-06T06:49:13.325Z,100966.38
2023-04-06T06:53:14.805Z,100969.75
2023-04-06T06:57:16.318Z,100964.75
2023-04-06T07:01:17.788Z,100969.50
2023-04-06T07:05:27.611Z,100959.09
2023-04-06T07:09:29.999Z,100957.41
2023-04-06T07:13:31.420Z,100944.16
2023-04-06T07:17:32.771Z,100940.59
2023-04-06T07:21:34.124Z,100938.16
2023-04-06T07:25:35.446Z,100937.56
2023-04-06T07:29:36.990Z,100938.69
2023-04-06T07:33:38.389Z,100937.69
2023-04-06T07:37:39.800Z,100933.72
2023-04-06T07:41:41.254Z,100931.59
2023-04-06T07:45:42.762Z,100925.00
2023-04-06T07:49:44.181Z,100925.88
2023-04-06T07:53:45.812Z,100928.38
2023-04-06T07:57:47.215Z,100925.25
2023-04-06T08:01:48.723Z,100921.78
2023-04-06T08:05:50.127Z,100912.38
2023-04-06T08:09:52.687Z,100922.94
2023-04-06T08:13:54.879Z,100916.09
2023-04-06T08:17:58.130Z,100910.97
2023-04-06T08:21:59.659Z,100917.13
2023-04-06T08:26:01.078Z,100920.31
2023-04-06T08:30:03.098Z,100913.31
2023-04-06T08:34:05.428Z,100906.91
2023-04-06T08:38:07.209Z,100908.53
2023-04-06T08:42:17.426Z,100909.00
2023-04-06T08:46:19.472Z,100904.69
2023-04-06T08:50:21.841Z,100904.84
2023-04-06T08:54:23.383Z,100902.50
2023-04-06T08:58:37.314Z,100893.50
2023-04-06T09:02:42.656Z,100894.69
2023-04-06T09:06:44.614Z,100889.16
2023-04-06T09:10:46.404Z,100873.44
2023-04-06T09:14:47.796Z,100876.97
2023-04-06T09:18:49.860Z,100882.88
2023-04-06T09:22:51.249Z,100885.00
2023-04-06T09:26:52.670Z,100873.94
2023-04-06T09:30:54.093Z,100882.19
2023-04-06T09:35:05.938Z,100880.00
2023-04-06T09:39:07.517Z,100870.72
2023-04-06T09:43:10.743Z,100867.75
2023-04-06T09:47:12.424Z,100877.25
2023-04-06T09:51:16.254Z,100866.00
2023-04-06T09:55:42.964Z,100864.31
2023-04-06T10:00:10.642Z,100866.72
2023-04-06T10:04:42.386Z,100857.44
2023-04-06T10:08:47.396Z,100853.88
2023-04-06T10:12:49.693Z,100846.22
2023-04-06T10:16:51.772Z,100850.97
2023-04-06T10:21:02.701Z,100848.56
2023-04-06T10:25:04.595Z,100842.88
2023-04-06T10:29:06.950Z,100853.97
2023-04-06T10:33:18.645Z,100837.16
2023-04-06T10:37:21.431Z,100844.47
2023-04-06T10:41:23.022Z,100843.53
2023-04-06T10:45:26.095Z,100838.41
2023-04-06T10:49:27.936Z,100827.88
2023-04-06T10:53:29.337Z,100827.50
2023-04-06T10:57:32.942Z,100837.03
2023-04-06T11:01:34.389Z,100834.28
2023-04-06T11:05:36.493Z,100824.59
2023-04-06T11:09:38.016Z,100821.81
2023-04-06T11:13:46.028Z,100828.19
2023-04-06T11:17:47.461Z,100823.47
2023-04-06T11:21:50.237Z,100828.53
2023-04-06T11:25:55.267Z,100832.78
2023-04-06T11:29:56.848Z,100822.31
2023-04-06T11:33:58.478Z,100838.53
2023-04-06T11:38:03.426Z,100818.41
2023-04-06T11:42:07.596Z,100818.19
2023-04-06T11:46:11.720Z,100818.00
2023-04-06T11:50:15.111Z,100813.84
2023-04-06T11:54:17.875Z,100804.78
2023-04-06T11:58:19.306Z,100811.84
2023-04-06T12:02:20.999Z,100812.59
2023-04-06T12:06:22.539Z,100806.13
2023-04-06T12:10:24.082Z,100809.47
2023-04-06T12:14:25.612Z,100802.06
2023-04-06T12:18:26.953Z,100797.19
2023-04-06T12:22:28.354Z,100799.97
2023-04-06T12:26:31.323Z,100796.03
2023-04-06T12:30:33.163Z,100802.28
2023-04-06T12:34:34.687Z,100799.13
2023-04-06T12:38:39.020Z,100799.88
2023-04-06T12:42:42.275Z,100804.94
2023-04-06T12:46:44.286Z,100804.16
2023-04-06T12:50:46.214Z,100806.72
2023-04-06T12:54:49.838Z,100805.16
2023-04-06T12:58:53.063Z,100798.56
2023-04-06T13:02:54.667Z,100800.09
2023-04-06T13:06:56.176Z,100809.31
2023-04-06T13:10:57.624Z,100807.81
2023-04-06T13:14:59.005Z,100806.84
2023-04-06T13:19:00.506Z,100813.72
2023-04-06T13:23:03.226Z,100807.56
2023-04-06T13:27:04.709Z,100804.53
2023-04-06T13:31:07.221Z,100799.78
2023-04-06T13:35:09.239Z,100802.94
2023-04-06T13:39:10.782Z,100810.44
2023-04-06T13:43:12.313Z,100822.00
2023-04-06T13:47:14.091Z,100813.13
2023-04-06T13:51:16.227Z,100817.50
2023-04-06T13:55:17.619Z,100829.78
2023-04-06T13:59:19.123Z,100821.38
2023-04-06T14:03:21.249Z,100825.28
2023-04-06T14:07:24.568Z,100832.59
2023-04-06T14:11:26.130Z,100830.81
2023-04-06T14:15:28.823Z,100829.63
2023-04-06T14:19:30.214Z,100833.03
2023-04-06T14:23:33.792Z,100838.06
2023-04-06T14:27:35.478Z,100843.00
2023-04-06T14:31:37.896Z,100840.78
2023-04-06T14:35:40.462Z,100840.69
2023-04-06T14:39:41.738Z,100839.25
2023-04-06T14:43:43.180Z,100819.69
2023-04-06T14:47:44.700Z,100830.13
2023-04-06T14:51:46.084Z,100828.19
2023-04-06T14:55:47.636Z,100832.53
2023-04-06T14:59:49.113Z,100820.91
2023-04-06T15:03:50.807Z,100831.75
2023-04-06T15:07:52.275Z,100830.03
2023-04-06T15:11:53.579Z,100825.19
2023-04-06T15:15:54.998Z,100830.91
2023-04-06T15:19:56.558Z,100835.13
2023-04-06T15:23:58.126Z,100826.47
2023-04-06T15:28:00.531Z,100821.75
2023-04-06T15:32:03.224Z,100831.22
2023-04-06T15:36:19.909Z,100824.72
2023-04-06T15:40:21.363Z,100831.66
2023-04-06T15:44:23.644Z,100826.72
2023-04-06T15:48:25.472Z,100822.16
2023-04-06T15:52:26.819Z,100827.28
2023-04-06T15:56:28.150Z,100824.22
2023-04-06T16:00:29.523Z,100820.88
2023-04-06T16:04:31.101Z,100825.34
2023-04-06T16:08:32.607Z,100824.63
2023-04-06T16:12:34.068Z,100826.97
2023-04-06T16:16:35.465Z,100827.09
2023-04-06T16:20:36.913Z,100830.50
2023-04-06T16:24:38.256Z,100827.50
2023-04-06T16:28:39.691Z,100827.94
2023-04-06T16:32:43.177Z,100832.00
2023-04-06T16:36:44.650Z,100833.47
2023-04-06T16:40:46.525Z,100829.44
2023-04-06T16:44:51.304Z,100828.66
2023-04-06T16:48:52.870Z,100833.31
2023-04-06T16:52:54.435Z,100832.34
2023-04-06T16:56:56.526Z,100829.88
2023-04-06T17:01:00.685Z,100840.09
2023-04-06T17:05:03.983Z,100825.69
2023-04-06T17:09:05.631Z,100820.53
2023-04-06T17:13:07.257Z,100822.72
2023-04-06T17:17:08.728Z,100828.97
2023-04-06T17:21:14.204Z,100814.84
2023-04-06T17:25:16.544Z,100818.00
2023-04-06T17:29:17.953Z,100825.03
2023-04-06T17:33:19.404Z,100821.13
2023-04-06T17:37:21.100Z,100818.72
2023-04-06T17:41:22.601Z,100822.47
2023-04-06T17:45:23.977Z,100826.03
2023-04-06T17:49:25.498Z,100825.31
2023-04-06T17:53:30.529Z,100810.13
2023-04-06T17:57:31.845Z,100815.97
2023-04-06T18:01:34.241Z,100815.88
2023-04-06T18:05:36.078Z,100827.03
2023-04-06T18:09:39.365Z,100820.97
2023-04-06T18:13:40.884Z,100824.28
2023-04-06T18:17:42.830Z,100823.16
2023-04-06T18:21:44.258Z,100817.72
2023-04-06T18:25:45.773Z,100817.16
2023-04-06T18:29:47.771Z,100808.19
2023-04-06T18:33:49.414Z,100816.66
2023-04-06T18:37:50.812Z,100812.06
2023-04-06T18:41:52.175Z,100798.25
2023-04-06T18:45:53.507Z,100799.03
2023-04-06T18:49:54.985Z,100806.22
2023-04-06T18:53:56.492Z,100801.72
2023-04-06T18:57:57.950Z,100802.00
2023-04-06T19:01:59.599Z,100803.22
2023-04-06T19:06:01.039Z,100792.78
2023-04-06T19:10:02.406Z,100790.00
2023-04-06T19:14:03.873Z,100790.34
2023-04-06T19:18:05.565Z,100795.19
2023-04-06T19:22:07.065Z,100794.88
2023-04-06T19:26:12.571Z,100792.16
2023-04-06T19:30:14.312Z,100787.03
2023-04-06T19:34:17.636Z,100781.47
2023-04-06T19:38:19.064Z,100776.34
2023-04-06T19:42:21.517Z,100776.09
2023-04-06T19:46:22.987Z,100769.69
2023-04-06T19:50:24.524Z,100781.38
2023-04-06T19:54:26.164Z,100771.59
2023-04-06T19:58:27.840Z,100773.69
2023-04-06T20:02:29.212Z,100771.28
2023-04-06T20:06:31.235Z,100777.13
2023-04-06T20:10:32.619Z,100773.56
2023-04-06T20:14:34.390Z,100776.91
2023-04-06T20:18:35.902Z,100767.13
2023-04-06T20:22:37.366Z,100758.16
2023-04-06T20:26:38.850Z,100760.22
2023-04-06T20:30:40.413Z,100758.56
2023-04-06T20:34:41.851Z,100761.09
2023-04-06T20:38:43.238Z,100756.06
2023-04-06T20:42:44.515Z,100745.53
2023-04-06T20:46:45.961Z,100754.19
2023-04-06T20:50:47.273Z,100746.25
2023-04-06T20:54:50.602Z,100747.13
2023-04-06T20:58:52.204Z,100743.06
2023-04-06T21:02:53.626Z,100735.22
2023-04-06T21:06:55.170Z,100734.69
2023-04-06T21:10:56.472Z,100724.19
2023-04-06T21:14:57.868Z,100725.69
2023-04-06T21:18:59.409Z,100717.34
2023-04-06T21:23:01.166Z,100709.41
2023-04-06T21:27:02.520Z,100718.75
2023-04-06T21:31:07.456Z,100714.19
2023-04-06T21:35:09.340Z,100707.88
2023-04-06T21:39:10.861Z,100704.72
2023-04-06T21:43:12.201Z,100706.56
2023-04-06T21:47:13.534Z,100702.53
2023-04-06T21:51:22.881Z,100706.13
2023-04-06T21:55:24.302Z,100701.69
2023-04-06T21:59:25.692Z,100697.72
2023-04-06T22:03:28.077Z,100693.41
2023-04-06T22:07:29.651Z,100696.53
2023-04-06T22:11:31.011Z,100697.63
2023-04-06T22:15:32.536Z,100690.91
2023-04-06T22:19:34.011Z,100686.50
2023-04-06T22:23:35.938Z,100680.03
2023-04-06T22:27:37.286Z,100681.34
2023-04-06T22:31:38.611Z,100684.88
2023-04-06T22:35:40.500Z,100683.16
2023-04-06T22:39:42.051Z,100681.50
2023-04-06T22:43:43.360Z,100677.50
2023-04-06T22:47:44.868Z,100675.66
2023-04-06T22:51:46.271Z,100674.25
2023-04-06T22:55:47.593Z,100665.34
2023-04-06T22:59:49.073Z,100669.06
2023-04-06T23:03:50.926Z,100660.63
2023-04-06T23:07:53.703Z,100661.28
2023-04-06T23:11:59.026Z,100658.50
2023-04-06T23:16:00.615Z,100653.91
2023-04-06T23:20:01.857Z,100659.31
2023-04-06T23:24:06.337Z,100660.34
2023-04-06T23:28:07.744Z,100657.22
2023-04-06T23:32:09.123Z,100652.22
2023-04-06T23:36:11.081Z,100645.88
2023-04-06T23:40:12.490Z,100645.81
2023-04-06T23:44:13.796Z,100647.66
2023-04-06T23:48:17.490Z,100647.28
2023-04-06T23:52:18.882Z,100650.69
2023-04-06T23:56:20.293Z,100645.31
